createdAt,value
2018-12-13T00:00:50.914Z,1.80
2018-12-13T00:03:48.926Z,1.60
2018-12-13T00:06:47.701Z,1.77
2018-12-13T00:09:45.439Z,1.70
2018-12-13T00:12:43.122Z,1.50
2018-12-13T00:15:40.273Z,1.70
2018-12-13T00:18:38.783Z,2.00
2018-12-13T00:21:36.257Z,1.80
2018-12-13T00:24:34.624Z,2.00
2018-12-13T00:27:31.908Z,1.97
2018-12-13T00:30:30.076Z,1.63
2018-12-13T00:33:27.852Z,1.70
2018-12-13T00:36:26.467Z,1.60
2018-12-13T00:39:24.860Z,1.70
2018-12-13T00:42:22.924Z,1.60
2018-12-13T00:45:21.826Z,1.90
2018-12-13T00:48:18.678Z,1.50
2018-12-13T00:51:16.032Z,1.63
2018-12-13T00:54:15.165Z,2.00
2018-12-13T00:57:13.995Z,1.80
2018-12-13T01:00:12.480Z,1.80
2018-12-13T01:03:10.631Z,1.87
2018-12-13T01:06:09.606Z,1.47
2018-12-13T01:12:14.342Z,1.80
2018-12-13T01:15:12.199Z,1.83
2018-12-13T01:18:11.528Z,1.70
2018-12-13T01:21:10.168Z,1.90
2018-12-13T01:24:08.443Z,1.80
2018-12-13T01:27:06.623Z,1.90
2018-12-13T01:30:04.849Z,1.80
2018-12-13T01:33:02.922Z,1.80
2018-12-13T01:36:01.351Z,1.80
2018-12-13T01:38:59.812Z,1.50
2018-12-13T01:41:57.506Z,1.70
2018-12-13T01:44:57.316Z,2.00
2018-12-13T01:47:56.060Z,1.90
2018-12-13T01:50:54.272Z,1.60
2018-12-13T01:53:52.830Z,1.93
2018-12-13T01:56:50.242Z,1.60
2018-12-13T01:59:48.506Z,1.80
2018-12-13T02:02:47.410Z,2.00
2018-12-13T02:05:45.512Z,1.70
2018-12-13T02:08:44.117Z,1.70
2018-12-13T02:11:42.932Z,1.90
2018-12-13T02:14:41.967Z,1.73
2018-12-13T02:17:39.420Z,1.97
2018-12-13T02:20:39.604Z,1.70
2018-12-13T02:23:37.244Z,1.50
2018-12-13T02:26:34.527Z,1.53
2018-12-13T02:29:33.026Z,1.70
2018-12-13T02:32:30.663Z,1.80
2018-12-13T02:35:29.663Z,1.70
2018-12-13T02:38:27.146Z,1.93
2018-12-13T02:41:35.272Z,2.10
2018-12-13T02:44:32.796Z,1.80
2018-12-13T02:47:31.535Z,2.17
2018-12-13T02:50:30.351Z,1.70
2018-12-13T02:53:27.917Z,2.00
2018-12-13T02:56:25.981Z,1.87
2018-12-13T02:59:24.088Z,2.07
2018-12-13T03:02:22.272Z,1.97
2018-12-13T03:05:21.182Z,2.00
2018-12-13T03:08:19.278Z,1.93
2018-12-13T03:11:18.721Z,2.00
2018-12-13T03:14:16.037Z,1.93
2018-12-13T03:17:14.682Z,1.83
2018-12-13T03:20:12.990Z,2.00
2018-12-13T03:23:11.038Z,1.97
2018-12-13T03:26:09.253Z,2.00
2018-12-13T03:29:06.818Z,1.53
2018-12-13T03:32:05.961Z,2.10
2018-12-13T03:35:03.841Z,1.87
2018-12-13T03:38:00.758Z,1.80
2018-12-13T03:40:59.069Z,1.80
2018-12-13T03:43:57.344Z,1.83
2018-12-13T03:46:56.576Z,2.07
2018-12-13T03:49:54.164Z,1.83
2018-12-13T03:52:52.127Z,1.90
2018-12-13T03:55:48.930Z,1.63
2018-12-13T03:58:46.139Z,1.93
2018-12-13T04:01:45.347Z,2.07
2018-12-13T04:04:44.042Z,1.90
2018-12-13T04:07:41.188Z,1.70
2018-12-13T04:10:40.004Z,1.80
2018-12-13T04:13:38.193Z,1.70
2018-12-13T04:16:36.082Z,1.80
2018-12-13T04:19:35.073Z,1.63
2018-12-13T04:22:33.598Z,2.00
2018-12-13T04:25:30.770Z,1.60
2018-12-13T04:28:29.560Z,1.90
2018-12-13T04:31:26.948Z,1.60
2018-12-13T04:34:26.149Z,2.03
2018-12-13T04:37:23.920Z,1.90
2018-12-13T04:40:22.535Z,1.80
2018-12-13T04:43:20.706Z,1.90
2018-12-13T04:46:19.114Z,1.57
2018-12-13T04:49:17.513Z,1.83
2018-12-13T04:52:14.752Z,1.70
2018-12-13T04:55:12.013Z,1.97
2018-12-13T04:58:10.200Z,1.53
2018-12-13T05:01:08.825Z,1.97
2018-12-13T05:04:06.580Z,1.60
2018-12-13T05:07:04.380Z,1.80
2018-12-13T05:10:03.799Z,1.67
2018-12-13T05:13:01.275Z,1.83
2018-12-13T05:16:00.806Z,1.90
2018-12-13T05:18:58.590Z,2.00
2018-12-13T05:21:57.794Z,1.80
2018-12-13T05:24:55.907Z,1.80
2018-12-13T05:27:53.996Z,1.60
2018-12-13T05:30:53.120Z,1.83
2018-12-13T05:33:51.190Z,1.63
2018-12-13T05:36:48.161Z,1.63
2018-12-13T05:39:46.527Z,1.80
2018-12-13T05:42:44.829Z,2.03
2018-12-13T05:45:43.324Z,1.90
2018-12-13T05:48:41.137Z,1.90
2018-12-13T05:51:39.072Z,1.80
2018-12-13T05:54:37.892Z,1.70
2018-12-13T05:57:34.753Z,1.57
2018-12-13T06:00:31.583Z,1.87
2018-12-13T06:03:29.325Z,2.00
2018-12-13T06:06:27.164Z,1.80
2018-12-13T06:09:25.113Z,2.20
2018-12-13T06:12:23.177Z,1.50
2018-12-13T06:15:22.419Z,1.73
2018-12-13T06:18:19.678Z,1.90
2018-12-13T06:21:19.003Z,1.87
2018-12-13T06:24:16.797Z,1.63
2018-12-13T06:27:14.075Z,1.70
2018-12-13T06:30:11.794Z,1.80
2018-12-13T06:33:09.879Z,1.43
2018-12-13T06:36:08.575Z,1.50
2018-12-13T06:39:07.201Z,1.40
2018-12-13T06:42:04.696Z,1.80
2018-12-13T06:45:02.528Z,1.50
2018-12-13T06:48:00.663Z,1.70
2018-12-13T06:50:58.056Z,1.50
2018-12-13T06:53:56.249Z,1.70
2018-12-13T06:56:53.602Z,1.40
2018-12-13T06:59:50.577Z,1.43
2018-12-13T07:02:48.610Z,1.47
2018-12-13T07:05:45.419Z,1.50
2018-12-13T07:08:44.604Z,1.40
2018-12-13T07:11:43.314Z,1.50
2018-12-13T07:14:42.025Z,1.00
2018-12-13T07:17:40.317Z,1.30
2018-12-13T07:20:39.668Z,1.53
2018-12-13T07:23:37.428Z,1.60
2018-12-13T07:26:34.156Z,1.10
2018-12-13T07:29:31.809Z,1.37
2018-12-13T07:32:31.045Z,1.40
2018-12-13T07:35:30.152Z,1.27
2018-12-13T07:38:28.792Z,1.20
2018-12-13T07:41:26.779Z,1.10
2018-12-13T07:44:24.371Z,1.13
2018-12-13T07:47:22.214Z,1.10
2018-12-13T07:50:21.850Z,1.20
2018-12-13T07:53:20.992Z,1.33
2018-12-13T07:56:18.982Z,1.50
2018-12-13T07:59:17.591Z,1.20
2018-12-13T08:02:15.488Z,1.30
2018-12-13T08:05:14.050Z,1.23
2018-12-13T08:08:11.733Z,1.10
2018-12-13T08:11:09.626Z,1.30
2018-12-13T08:14:07.784Z,1.27
2018-12-13T08:17:05.895Z,1.30
2018-12-13T08:20:05.012Z,1.50
2018-12-13T08:23:03.396Z,1.50
2018-12-13T08:26:01.586Z,1.37
2018-12-13T08:28:59.776Z,1.40
2018-12-13T08:31:58.592Z,1.40
2018-12-13T08:34:57.532Z,1.40
2018-12-13T08:37:56.028Z,1.27
2018-12-13T08:40:54.209Z,1.17
2018-12-13T08:43:51.903Z,1.10
2018-12-13T08:46:49.329Z,1.00
2018-12-13T08:49:47.017Z,1.20
2018-12-13T08:52:43.859Z,1.40
2018-12-13T08:55:41.806Z,1.20
2018-12-13T08:58:39.787Z,1.17
2018-12-13T09:01:37.259Z,1.00
2018-12-13T09:04:35.664Z,1.00
2018-12-13T09:07:34.899Z,1.10
2018-12-13T09:10:33.284Z,1.00
2018-12-13T09:13:31.377Z,1.00
2018-12-13T09:16:31.465Z,0.90
2018-12-13T09:19:29.416Z,0.80
2018-12-13T09:22:27.393Z,1.00
2018-12-13T09:25:25.289Z,0.90
2018-12-13T09:28:23.771Z,1.03
2018-12-13T09:31:21.567Z,1.00
2018-12-13T09:34:18.689Z,1.00
2018-12-13T09:37:16.076Z,0.90
2018-12-13T09:40:13.848Z,0.97
2018-12-13T09:43:11.217Z,0.97
2018-12-13T09:46:08.642Z,0.90
2018-12-13T09:49:05.897Z,1.07
2018-12-13T09:52:04.540Z,0.87
2018-12-13T09:55:05.635Z,0.73
2018-12-13T09:58:01.285Z,1.13
2018-12-13T10:00:59.588Z,0.80
2018-12-13T10:03:58.725Z,0.80
2018-12-13T10:06:57.602Z,0.90
2018-12-13T10:09:56.221Z,0.90
2018-12-13T10:12:53.478Z,0.90
2018-12-13T10:15:51.650Z,1.07
2018-12-13T10:18:49.768Z,1.10
2018-12-13T10:21:46.932Z,0.73
2018-12-13T10:24:45.316Z,1.00
2018-12-13T10:27:41.790Z,0.83
2018-12-13T10:30:43.990Z,1.00
2018-12-13T10:33:41.227Z,0.83
2018-12-13T10:36:40.358Z,1.00
2018-12-13T10:39:39.180Z,1.00
2018-12-13T10:42:38.006Z,1.07
2018-12-13T10:45:36.487Z,0.90
2018-12-13T10:48:35.009Z,1.10
2018-12-13T10:51:33.153Z,0.87
2018-12-13T10:54:30.946Z,0.90
2018-12-13T10:57:28.644Z,1.00
2018-12-13T11:00:31.821Z,1.00
2018-12-13T11:03:37.531Z,0.90
2018-12-13T11:06:35.651Z,0.70
2018-12-13T11:09:32.657Z,0.90
2018-12-13T11:12:31.055Z,1.00
2018-12-13T11:15:29.244Z,0.97
2018-12-13T11:18:26.415Z,0.90
2018-12-13T11:21:23.359Z,0.90
2018-12-13T11:24:21.427Z,1.20
2018-12-13T11:27:36.654Z,1.00
2018-12-13T11:30:40.961Z,0.90
2018-12-13T11:33:38.643Z,1.10
2018-12-13T11:36:35.917Z,1.30
2018-12-13T11:39:34.823Z,1.30
2018-12-13T11:42:33.543Z,1.00
2018-12-13T11:45:33.416Z,1.00
2018-12-13T11:48:31.681Z,1.07
2018-12-13T11:51:30.627Z,1.27
2018-12-13T11:54:30.269Z,1.00
2018-12-13T11:57:27.737Z,1.00
2018-12-13T12:00:25.275Z,0.93
2018-12-13T12:03:22.394Z,1.30
2018-12-13T12:06:20.415Z,1.10
2018-12-13T12:09:19.043Z,1.03
2018-12-13T12:12:17.946Z,0.90
2018-12-13T12:15:15.507Z,1.60
2018-12-13T12:18:13.007Z,1.00
2018-12-13T12:21:09.918Z,1.03
2018-12-13T12:24:07.445Z,1.10
2018-12-13T12:27:06.397Z,1.40
2018-12-13T12:30:04.663Z,1.20
2018-12-13T12:33:02.067Z,1.20
2018-12-13T12:36:01.255Z,1.20
2018-12-13T12:39:00.188Z,1.10
2018-12-13T12:41:58.165Z,0.97
2018-12-13T12:44:57.196Z,1.00
2018-12-13T12:47:55.470Z,1.00
2018-12-13T12:50:53.369Z,0.90
2018-12-13T12:53:52.770Z,1.13
2018-12-13T12:56:49.866Z,1.30
2018-12-13T12:59:47.396Z,1.10
2018-12-13T13:02:45.975Z,1.20
2018-12-13T13:05:44.418Z,1.30
2018-12-13T13:08:42.588Z,1.20
2018-12-13T13:11:40.568Z,1.27
2018-12-13T13:14:38.581Z,1.07
2018-12-13T13:17:37.155Z,1.20
2018-12-13T13:20:34.926Z,1.17
2018-12-13T13:23:33.236Z,1.10
2018-12-13T13:26:30.611Z,1.10
2018-12-13T13:29:28.662Z,1.17
2018-12-13T13:32:27.686Z,1.30
2018-12-13T13:35:25.044Z,1.30
2018-12-13T13:38:22.810Z,1.00
2018-12-13T13:41:21.557Z,1.30
2018-12-13T13:44:19.737Z,1.00
2018-12-13T13:47:17.799Z,1.07
2018-12-13T13:50:15.778Z,1.20
2018-12-13T13:53:14.534Z,1.23
2018-12-13T13:56:12.699Z,1.40
2018-12-13T13:59:11.303Z,1.00
2018-12-13T14:02:10.122Z,1.03
2018-12-13T14:05:09.316Z,1.10
2018-12-13T14:08:06.216Z,1.03
2018-12-13T14:11:03.939Z,0.90
2018-12-13T14:14:02.250Z,1.00
2018-12-13T14:17:00.117Z,1.20
2018-12-13T14:19:58.302Z,1.10
2018-12-13T14:22:56.740Z,0.80
2018-12-13T14:25:53.885Z,1.00
2018-12-13T14:28:52.267Z,1.20
2018-12-13T14:31:50.839Z,1.20
2018-12-13T14:34:48.839Z,1.00
2018-12-13T14:37:47.017Z,1.00
2018-12-13T14:40:44.229Z,0.83
2018-12-13T14:43:42.115Z,0.90
2018-12-13T14:46:40.130Z,0.80
2018-12-13T14:49:38.314Z,1.00
2018-12-13T14:52:37.560Z,0.80
2018-12-13T14:55:35.986Z,0.73
2018-12-13T14:58:34.153Z,0.70
2018-12-13T15:01:31.074Z,0.90
2018-12-13T15:04:29.380Z,0.70
2018-12-13T15:07:27.280Z,1.10
2018-12-13T15:10:26.057Z,0.80
2018-12-13T15:13:25.201Z,0.83
2018-12-13T15:16:22.660Z,0.80
2018-12-13T15:19:21.809Z,0.63
2018-12-13T15:22:20.200Z,0.70
2018-12-13T15:25:18.128Z,0.80
2018-12-13T15:28:16.323Z,0.87
2018-12-13T15:31:14.009Z,0.70
2018-12-13T15:34:12.666Z,0.60
2018-12-13T15:37:10.391Z,0.60
2018-12-13T15:40:08.897Z,0.40
2018-12-13T15:43:06.433Z,0.80
2018-12-13T15:46:03.060Z,0.70
2018-12-13T15:49:01.171Z,0.63
2018-12-13T15:51:59.916Z,0.60
2018-12-13T15:54:58.300Z,0.67
2018-12-13T15:57:55.454Z,0.70
2018-12-13T16:00:53.445Z,0.57
2018-12-13T16:03:52.430Z,0.80
2018-12-13T16:06:50.821Z,0.50
2018-12-13T16:09:48.294Z,0.50
2018-12-13T16:12:46.787Z,0.80
2018-12-13T16:15:44.764Z,0.50
2018-12-13T16:18:43.489Z,0.50
2018-12-13T16:21:42.726Z,0.60
2018-12-13T16:24:40.795Z,0.47
2018-12-13T16:27:39.523Z,0.80
2018-12-13T16:30:36.756Z,0.60
2018-12-13T16:33:33.645Z,0.50
2018-12-13T16:36:31.671Z,0.63
2018-12-13T16:39:29.360Z,0.50
2018-12-13T16:42:27.880Z,0.63
2018-12-13T16:45:26.950Z,0.50
2018-12-13T16:48:26.315Z,0.67
2018-12-13T16:51:25.046Z,0.33
2018-12-13T16:54:22.976Z,0.43
2018-12-13T16:57:22.043Z,0.70
2018-12-13T17:00:20.326Z,0.80
2018-12-13T17:03:20.573Z,0.60
2018-12-13T17:06:17.329Z,0.50
2018-12-13T17:09:15.641Z,0.60
2018-12-13T17:12:12.885Z,0.50
2018-12-13T17:15:11.310Z,0.60
2018-12-13T17:18:10.346Z,0.60
2018-12-13T17:21:09.238Z,0.60
2018-12-13T17:24:07.836Z,0.70
2018-12-13T17:27:06.622Z,0.57
2018-12-13T17:30:04.431Z,0.33
2018-12-13T17:33:01.786Z,0.50
2018-12-13T17:36:00.197Z,0.70
2018-12-13T17:38:58.265Z,0.40
2018-12-13T17:41:56.645Z,0.50
2018-12-13T17:44:55.883Z,0.67
2018-12-13T17:47:54.276Z,0.50
2018-12-13T17:50:52.633Z,0.50
2018-12-13T17:53:49.313Z,0.50
2018-12-13T17:56:47.382Z,0.50
2018-12-13T17:59:46.635Z,0.60
2018-12-13T18:02:44.186Z,0.40
2018-12-13T18:05:42.610Z,0.40
2018-12-13T18:08:41.052Z,0.60
2018-12-13T18:11:40.062Z,0.90
2018-12-13T18:14:38.396Z,0.73
2018-12-13T18:17:36.171Z,0.90
2018-12-13T18:20:34.153Z,0.90
2018-12-13T18:23:31.716Z,0.60
2018-12-13T18:26:28.863Z,0.80
2018-12-13T18:29:26.626Z,0.80
2018-12-13T18:32:24.425Z,1.00
2018-12-13T18:35:21.754Z,1.20
2018-12-13T18:38:19.108Z,1.20
2018-12-13T18:41:18.350Z,1.00
2018-12-13T18:44:17.161Z,0.80
2018-12-13T18:47:14.935Z,1.00
2018-12-13T18:50:12.705Z,1.20
2018-12-13T18:53:12.055Z,1.07
2018-12-13T18:56:10.373Z,0.97
2018-12-13T18:59:07.901Z,1.10
2018-12-13T19:02:05.253Z,1.13
2018-12-13T19:05:02.401Z,1.50
2018-12-13T19:08:00.796Z,1.70
2018-12-13T19:10:58.279Z,1.37
2018-12-13T19:13:56.040Z,1.40
2018-12-13T19:16:53.824Z,1.57
2018-12-13T19:19:52.432Z,1.23
2018-12-13T19:22:50.909Z,1.27
2018-12-13T19:25:48.174Z,1.17
2018-12-13T19:28:45.617Z,1.60
2018-12-13T19:31:42.373Z,1.60
2018-12-13T19:34:40.560Z,1.77
2018-12-13T19:37:38.843Z,1.13
2018-12-13T19:40:37.574Z,1.70
2018-12-13T19:43:35.815Z,1.50
2018-12-13T19:46:32.702Z,1.40
2018-12-13T19:49:30.353Z,1.80
2018-12-13T19:52:27.371Z,1.73
2018-12-13T19:55:25.280Z,1.50
2018-12-13T19:58:23.240Z,1.50
2018-12-13T20:01:20.693Z,1.20
2018-12-13T20:04:18.290Z,1.87
2018-12-13T20:07:15.515Z,1.70
2018-12-13T20:10:13.378Z,1.60
2018-12-13T20:13:11.989Z,1.70
2018-12-13T20:16:09.964Z,2.00
2018-12-13T20:19:09.196Z,1.63
2018-12-13T20:22:06.550Z,1.87
2018-12-13T20:25:07.039Z,1.40
2018-12-13T20:28:05.229Z,1.80
2018-12-13T20:31:02.999Z,1.40
2018-12-13T20:34:01.126Z,1.80
2018-12-13T20:36:59.917Z,1.70
2018-12-13T20:39:58.229Z,1.87
2018-12-13T20:42:55.983Z,1.70
2018-12-13T20:45:53.605Z,1.90
2018-12-13T20:48:52.137Z,1.43
2018-12-13T20:51:49.817Z,1.97
2018-12-13T20:54:47.595Z,1.87
2018-12-13T20:57:45.899Z,1.50
2018-12-13T21:00:43.417Z,1.53
2018-12-13T21:03:40.702Z,1.57
2018-12-13T21:06:38.349Z,1.60
2018-12-13T21:09:36.865Z,1.63
2018-12-13T21:12:33.958Z,1.60
2018-12-13T21:15:32.205Z,1.70
2018-12-13T21:18:30.271Z,1.50
2018-12-13T21:21:28.582Z,1.40
2018-12-13T21:24:26.649Z,1.73
2018-12-13T21:27:25.801Z,1.50
2018-12-13T21:30:22.819Z,1.80
2018-12-13T21:33:21.370Z,1.67
2018-12-13T21:36:19.199Z,1.60
2018-12-13T21:39:18.051Z,1.50
2018-12-13T21:42:16.516Z,1.60
2018-12-13T21:45:15.143Z,1.60
2018-12-13T21:48:12.302Z,1.63
2018-12-13T21:51:10.981Z,1.40
2018-12-13T21:54:08.579Z,1.60
2018-12-13T21:57:05.707Z,1.60
2018-12-13T22:00:03.671Z,1.80
2018-12-13T22:03:01.027Z,1.60
2018-12-13T22:05:59.005Z,1.40
2018-12-13T22:08:56.777Z,1.63
2018-12-13T22:11:54.341Z,1.50
2018-12-13T22:14:53.476Z,1.60
2018-12-13T22:17:51.887Z,1.40
2018-12-13T22:20:50.686Z,1.70
2018-12-13T22:23:48.598Z,1.70
2018-12-13T22:26:45.705Z,1.80
2018-12-13T22:29:43.482Z,1.80
2018-12-13T22:32:41.917Z,1.73
2018-12-13T22:35:39.776Z,1.80
2018-12-13T22:38:38.981Z,1.40
2018-12-13T22:41:37.231Z,1.60
2018-12-13T22:44:35.070Z,1.60
2018-12-13T22:47:32.545Z,1.37
2018-12-13T22:50:31.345Z,1.50
2018-12-13T22:53:29.121Z,1.50
2018-12-13T22:56:26.556Z,1.70
2018-12-13T22:59:23.702Z,1.40
2018-12-13T23:02:22.015Z,1.70
2018-12-13T23:05:20.847Z,1.60
2018-12-13T23:08:18.061Z,1.63
2018-12-13T23:11:16.877Z,1.80
2018-12-13T23:14:15.484Z,1.80
2018-12-13T23:17:14.512Z,1.60
2018-12-13T23:20:12.073Z,1.80
2018-12-13T23:23:10.496Z,1.53
2018-12-13T23:26:08.783Z,1.50
2018-12-13T23:29:08.109Z,1.70
2018-12-13T23:32:06.502Z,1.73
2018-12-13T23:35:04.142Z,1.60
2018-12-13T23:38:01.349Z,1.40
2018-12-13T23:40:59.775Z,1.73
2018-12-13T23:43:57.797Z,1.40
2018-12-13T23:46:56.633Z,1.40
2018-12-13T23:49:55.429Z,1.70
2018-12-13T23:52:53.827Z,1.53
2018-12-13T23:55:53.066Z,1.50
2018-12-13T23:58:50.955Z,1.43
